sensor_id;sensor_type;location;lat;lon;timestamp;P1;durP1;ratioP1;P2;durP2;ratioP2
59366;SDS011;45163;47.690;11.770;2023-04-24T00:00:58;1.37;;;1.07;;
59366;SDS011;45163;47.690;11.770;2023-04-24T00:03:26;1.50;;;0.70;;
59366;SDS011;45163;47.690;11.770;2023-04-24T00:05:53;1.00;;;1.00;;
59366;SDS011;45163;47.690;11.770;2023-04-24T00:08:20;0.97;;;0.83;;
59366;SDS011;45163;47.690;11.770;2023-04-24T00:10:46;0.83;;;0.83;;
59366;SDS011;45163;47.690;11.770;2023-04-24T00:13:12;1.73;;;0.90;;
59366;SDS011;45163;47.690;11.770;2023-04-24T00:15:38;4.27;;;1.00;;
59366;SDS011;45163;47.690;11.770;2023-04-24T00:18:04;1.10;;;1.00;;
59366;SDS011;45163;47.690;11.770;2023-04-24T00:20:30;1.13;;;0.90;;
59366;SDS011;45163;47.690;11.770;2023-04-24T00:22:58;1.93;;;1.00;;
59366;SDS011;45163;47.690;11.770;2023-04-24T00:25:24;0.97;;;0.97;;
59366;SDS011;45163;47.690;11.770;2023-04-24T00:27:50;1.17;;;1.07;;
59366;SDS011;45163;47.690;11.770;2023-04-24T00:30:16;3.10;;;1.10;;
59366;SDS011;45163;47.690;11.770;2023-04-24T00:32:42;0.80;;;0.80;;
59366;SDS011;45163;47.690;11.770;2023-04-24T00:35:08;3.23;;;0.93;;
59366;SDS011;45163;47.690;11.770;2023-04-24T00:37:34;1.10;;;0.87;;
59366;SDS011;45163;47.690;11.770;2023-04-24T00:40:00;1.20;;;1.03;;
59366;SDS011;45163;47.690;11.770;2023-04-24T00:42:26;1.00;;;0.90;;
59366;SDS011;45163;47.690;11.770;2023-04-24T00:44:52;2.27;;;0.90;;
59366;SDS011;45163;47.690;11.770;2023-04-24T00:47:19;0.97;;;0.90;;
59366;SDS011;45163;47.690;11.770;2023-04-24T00:49:45;1.00;;;1.00;;
59366;SDS011;45163;47.690;11.770;2023-04-24T00:52:11;0.93;;;0.93;;
59366;SDS011;45163;47.690;11.770;2023-04-24T00:54:38;3.67;;;1.10;;
59366;SDS011;45163;47.690;11.770;2023-04-24T00:57:04;1.10;;;1.00;;
59366;SDS011;45163;47.690;11.770;2023-04-24T00:59:30;1.00;;;1.00;;
59366;SDS011;45163;47.690;11.770;2023-04-24T01:01:57;1.20;;;1.10;;
59366;SDS011;45163;47.690;11.770;2023-04-24T01:04:23;1.97;;;1.00;;
59366;SDS011;45163;47.690;11.770;2023-04-24T01:06:50;2.50;;;1.10;;
59366;SDS011;45163;47.690;11.770;2023-04-24T01:09:17;1.90;;;0.93;;
59366;SDS011;45163;47.690;11.770;2023-04-24T01:11:44;1.47;;;1.00;;
59366;SDS011;45163;47.690;11.770;2023-04-24T01:14:10;1.17;;;0.93;;
59366;SDS011;45163;47.690;11.770;2023-04-24T01:16:37;0.80;;;0.80;;
59366;SDS011;45163;47.690;11.770;2023-04-24T01:19:05;1.23;;;0.97;;
59366;SDS011;45163;47.690;11.770;2023-04-24T01:21:34;1.20;;;1.10;;
59366;SDS011;45163;47.690;11.770;2023-04-24T01:24:02;0.97;;;0.90;;
59366;SDS011;45163;47.690;11.770;2023-04-24T01:26:32;1.80;;;1.27;;
59366;SDS011;45163;47.690;11.770;2023-04-24T01:28:58;1.57;;;1.10;;
59366;SDS011;45163;47.690;11.770;2023-04-24T01:31:24;2.20;;;0.93;;
59366;SDS011;45163;47.690;11.770;2023-04-24T01:33:51;1.00;;;1.00;;
59366;SDS011;45163;47.690;11.770;2023-04-24T01:36:18;1.00;;;1.00;;
59366;SDS011;45163;47.690;11.770;2023-04-24T01:38:45;1.03;;;0.80;;
59366;SDS011;45163;47.690;11.770;2023-04-24T01:41:11;1.70;;;1.10;;
59366;SDS011;45163;47.690;11.770;2023-04-24T01:43:37;3.20;;;0.93;;
59366;SDS011;45163;47.690;11.770;2023-04-24T01:46:03;1.23;;;0.93;;
59366;SDS011;45163;47.690;11.770;2023-04-24T01:48:29;1.40;;;1.10;;
59366;SDS011;45163;47.690;11.770;2023-04-24T01:50:56;1.47;;;1.20;;
59366;SDS011;45163;47.690;11.770;2023-04-24T01:53:22;0.90;;;0.90;;
59366;SDS011;45163;47.690;11.770;2023-04-24T01:55:48;3.40;;;1.00;;
59366;SDS011;45163;47.690;11.770;2023-04-24T01:58:14;2.43;;;0.97;;
59366;SDS011;45163;47.690;11.770;2023-04-24T02:00:40;1.20;;;1.10;;
59366;SDS011;45163;47.690;11.770;2023-04-24T02:03:06;1.07;;;0.97;;
59366;SDS011;45163;47.690;11.770;2023-04-24T02:05:32;4.20;;;1.00;;
59366;SDS011;45163;47.690;11.770;2023-04-24T02:07:58;1.03;;;0.93;;
59366;SDS011;45163;47.690;11.770;2023-04-24T02:10:25;0.80;;;0.80;;
59366;SDS011;45163;47.690;11.770;2023-04-24T02:12:51;2.17;;;1.03;;
59366;SDS011;45163;47.690;11.770;2023-04-24T02:15:17;1.30;;;1.20;;
59366;SDS011;45163;47.690;11.770;2023-04-24T02:17:43;1.37;;;1.10;;
59366;SDS011;45163;47.690;11.770;2023-04-24T02:20:09;2.80;;;1.10;;
59366;SDS011;45163;47.690;11.770;2023-04-24T02:22:35;1.10;;;1.00;;
59366;SDS011;45163;47.690;11.770;2023-04-24T02:25:01;2.63;;;1.10;;
59366;SDS011;45163;47.690;11.770;2023-04-24T02:27:28;2.00;;;0.93;;
59366;SDS011;45163;47.690;11.770;2023-04-24T02:29:54;1.47;;;1.00;;
59366;SDS011;45163;47.690;11.770;2023-04-24T02:32:20;1.80;;;1.17;;
59366;SDS011;45163;47.690;11.770;2023-04-24T02:34:46;1.37;;;1.10;;
59366;SDS011;45163;47.690;11.770;2023-04-24T02:37:12;1.30;;;1.20;;
59366;SDS011;45163;47.690;11.770;2023-04-24T02:39:38;2.23;;;1.00;;
59366;SDS011;45163;47.690;11.770;2023-04-24T02:42:04;4.37;;;1.00;;
59366;SDS011;45163;47.690;11.770;2023-04-24T02:44:30;1.60;;;1.00;;
59366;SDS011;45163;47.690;11.770;2023-04-24T02:46:56;2.30;;;1.00;;
59366;SDS011;45163;47.690;11.770;2023-04-24T02:49:22;0.90;;;0.90;;
59366;SDS011;45163;47.690;11.770;2023-04-24T02:51:48;1.30;;;1.17;;
59366;SDS011;45163;47.690;11.770;2023-04-24T02:54:14;2.27;;;1.23;;
59366;SDS011;45163;47.690;11.770;2023-04-24T02:56:40;1.17;;;1.00;;
59366;SDS011;45163;47.690;11.770;2023-04-24T02:59:06;1.00;;;0.90;;
59366;SDS011;45163;47.690;11.770;2023-04-24T03:01:32;0.80;;;0.80;;
59366;SDS011;45163;47.690;11.770;2023-04-24T03:03:59;1.43;;;1.10;;
59366;SDS011;45163;47.690;11.770;2023-04-24T03:06:25;1.50;;;1.03;;
59366;SDS011;45163;47.690;11.770;2023-04-24T03:08:52;1.53;;;1.00;;
59366;SDS011;45163;47.690;11.770;2023-04-24T03:11:19;0.90;;;0.90;;
59366;SDS011;45163;47.690;11.770;2023-04-24T03:13:45;1.23;;;0.97;;
59366;SDS011;45163;47.690;11.770;2023-04-24T03:16:11;0.90;;;0.90;;
59366;SDS011;45163;47.690;11.770;2023-04-24T03:18:37;0.97;;;0.97;;
59366;SDS011;45163;47.690;11.770;2023-04-24T03:21:03;1.40;;;0.90;;
59366;SDS011;45163;47.690;11.770;2023-04-24T03:23:29;1.83;;;1.10;;
59366;SDS011;45163;47.690;11.770;2023-04-24T03:25:55;1.30;;;1.20;;
59366;SDS011;45163;47.690;11.770;2023-04-24T03:28:21;1.40;;;1.30;;
59366;SDS011;45163;47.690;11.770;2023-04-24T03:30:47;1.40;;;1.30;;
59366;SDS011;45163;47.690;11.770;2023-04-24T03:33:13;1.00;;;1.00;;
59366;SDS011;45163;47.690;11.770;2023-04-24T03:35:38;3.10;;;1.20;;
59366;SDS011;45163;47.690;11.770;2023-04-24T03:38:04;1.13;;;1.03;;
59366;SDS011;45163;47.690;11.770;2023-04-24T03:40:30;1.20;;;1.10;;
59366;SDS011;45163;47.690;11.770;2023-04-24T03:42:59;1.13;;;1.03;;
59366;SDS011;45163;47.690;11.770;2023-04-24T03:45:25;1.63;;;0.80;;
59366;SDS011;45163;47.690;11.770;2023-04-24T03:47:51;0.60;;;0.60;;
59366;SDS011;45163;47.690;11.770;2023-04-24T03:50:17;0.60;;;0.60;;
59366;SDS011;45163;47.690;11.770;2023-04-24T03:52:43;1.00;;;0.90;;
59366;SDS011;45163;47.690;11.770;2023-04-24T03:55:09;0.60;;;0.60;;
59366;SDS011;45163;47.690;11.770;2023-04-24T03:57:39;1.20;;;0.97;;
59366;SDS011;45163;47.690;11.770;2023-04-24T04:00:06;0.80;;;0.80;;
59366;SDS011;45163;47.690;11.770;2023-04-24T04:02:32;0.97;;;0.97;;
59366;SDS011;45163;47.690;11.770;2023-04-24T04:04:58;2.80;;;1.00;;
59366;SDS011;45163;47.690;11.770;2023-04-24T04:07:24;0.57;;;0.57;;
59366;SDS011;45163;47.690;11.770;2023-04-24T04:09:51;0.80;;;0.80;;
59366;SDS011;45163;47.690;11.770;2023-04-24T04:12:17;0.83;;;0.80;;
59366;SDS011;45163;47.690;11.770;2023-04-24T04:14:43;0.70;;;0.70;;
59366;SDS011;45163;47.690;11.770;2023-04-24T04:17:08;1.20;;;1.10;;
59366;SDS011;45163;47.690;11.770;2023-04-24T04:19:35;1.20;;;1.10;;
59366;SDS011;45163;47.690;11.770;2023-04-24T04:22:00;1.10;;;0.97;;
59366;SDS011;45163;47.690;11.770;2023-04-24T04:24:26;3.43;;;1.50;;
59366;SDS011;45163;47.690;11.770;2023-04-24T04:26:55;1.90;;;1.37;;
59366;SDS011;45163;47.690;11.770;2023-04-24T04:29:23;2.60;;;1.37;;
59366;SDS011;45163;47.690;11.770;2023-04-24T04:31:49;2.23;;;1.70;;
59366;SDS011;45163;47.690;11.770;2023-04-24T04:34:15;2.00;;;1.40;;
59366;SDS011;45163;47.690;11.770;2023-04-24T04:36:41;3.90;;;2.20;;
59366;SDS011;45163;47.690;11.770;2023-04-24T04:39:09;1.77;;;1.23;;
59366;SDS011;45163;47.690;11.770;2023-04-24T04:41:35;1.77;;;1.10;;
59366;SDS011;45163;47.690;11.770;2023-04-24T04:44:01;1.83;;;0.90;;
59366;SDS011;45163;47.690;11.770;2023-04-24T04:46:30;1.40;;;1.20;;
59366;SDS011;45163;47.690;11.770;2023-04-24T04:48:59;1.90;;;1.23;;
59366;SDS011;45163;47.690;11.770;2023-04-24T04:51:25;2.10;;;1.13;;
59366;SDS011;45163;47.690;11.770;2023-04-24T04:53:51;0.80;;;0.80;;
59366;SDS011;45163;47.690;11.770;2023-04-24T04:56:17;0.83;;;0.80;;
59366;SDS011;45163;47.690;11.770;2023-04-24T04:58:43;2.03;;;1.20;;
59366;SDS011;45163;47.690;11.770;2023-04-24T05:01:09;0.83;;;0.77;;
59366;SDS011;45163;47.690;11.770;2023-04-24T05:03:35;0.93;;;0.90;;
59366;SDS011;45163;47.690;11.770;2023-04-24T05:06:01;1.37;;;0.97;;
59366;SDS011;45163;47.690;11.770;2023-04-24T05:08:27;0.93;;;0.80;;
59366;SDS011;45163;47.690;11.770;2023-04-24T05:10:54;1.47;;;1.00;;
59366;SDS011;45163;47.690;11.770;2023-04-24T05:13:20;1.63;;;1.03;;
59366;SDS011;45163;47.690;11.770;2023-04-24T05:15:46;1.53;;;0.93;;
59366;SDS011;45163;47.690;11.770;2023-04-24T05:18:12;0.80;;;0.80;;
59366;SDS011;45163;47.690;11.770;2023-04-24T05:20:38;1.00;;;1.00;;
59366;SDS011;45163;47.690;11.770;2023-04-24T05:23:04;2.20;;;1.17;;
59366;SDS011;45163;47.690;11.770;2023-04-24T05:25:30;2.90;;;1.60;;
59366;SDS011;45163;47.690;11.770;2023-04-24T05:28:01;1.40;;;1.30;;
59366;SDS011;45163;47.690;11.770;2023-04-24T05:30:27;1.47;;;1.20;;
59366;SDS011;45163;47.690;11.770;2023-04-24T05:32:54;1.23;;;1.13;;
59366;SDS011;45163;47.690;11.770;2023-04-24T05:35:20;2.10;;;1.27;;
59366;SDS011;45163;47.690;11.770;2023-04-24T05:37:46;1.80;;;1.30;;
59366;SDS011;45163;47.690;11.770;2023-04-24T05:40:12;1.83;;;1.20;;
59366;SDS011;45163;47.690;11.770;2023-04-24T05:42:38;2.20;;;1.30;;
59366;SDS011;45163;47.690;11.770;2023-04-24T05:45:04;1.37;;;1.07;;
59366;SDS011;45163;47.690;11.770;2023-04-24T05:47:30;4.03;;;1.57;;
59366;SDS011;45163;47.690;11.770;2023-04-24T05:49:56;1.60;;;1.37;;
59366;SDS011;45163;47.690;11.770;2023-04-24T05:52:22;2.03;;;1.40;;
59366;SDS011;45163;47.690;11.770;2023-04-24T05:54:48;1.47;;;1.20;;
59366;SDS011;45163;47.690;11.770;2023-04-24T05:57:14;1.20;;;1.10;;
59366;SDS011;45163;47.690;11.770;2023-04-24T05:59:40;2.33;;;1.10;;
59366;SDS011;45163;47.690;11.770;2023-04-24T06:02:07;1.57;;;1.00;;
59366;SDS011;45163;47.690;11.770;2023-04-24T06:04:33;1.10;;;1.00;;
59366;SDS011;45163;47.690;11.770;2023-04-24T06:06:59;1.30;;;1.00;;
59366;SDS011;45163;47.690;11.770;2023-04-24T06:09:25;1.17;;;1.07;;
59366;SDS011;45163;47.690;11.770;2023-04-24T06:11:51;1.47;;;1.27;;
59366;SDS011;45163;47.690;11.770;2023-04-24T06:14:19;1.13;;;1.10;;
59366;SDS011;45163;47.690;11.770;2023-04-24T06:16:45;1.90;;;1.50;;
59366;SDS011;45163;47.690;11.770;2023-04-24T06:19:11;2.53;;;1.73;;
59366;SDS011;45163;47.690;11.770;2023-04-24T06:21:37;1.70;;;1.60;;
59366;SDS011;45163;47.690;11.770;2023-04-24T06:24:03;1.70;;;1.27;;
59366;SDS011;45163;47.690;11.770;2023-04-24T06:26:30;3.33;;;2.40;;
59366;SDS011;45163;47.690;11.770;2023-04-24T06:28:56;1.27;;;1.17;;
59366;SDS011;45163;47.690;11.770;2023-04-24T06:31:24;1.37;;;1.27;;
59366;SDS011;45163;47.690;11.770;2023-04-24T06:33:50;1.00;;;0.80;;
59366;SDS011;45163;47.690;11.770;2023-04-24T06:36:16;1.20;;;1.00;;
59366;SDS011;45163;47.690;11.770;2023-04-24T06:38:42;1.00;;;0.90;;
59366;SDS011;45163;47.690;11.770;2023-04-24T06:41:11;1.80;;;0.90;;
59366;SDS011;45163;47.690;11.770;2023-04-24T06:43:38;0.77;;;0.70;;
59366;SDS011;45163;47.690;11.770;2023-04-24T06:46:04;1.00;;;0.90;;
59366;SDS011;45163;47.690;11.770;2023-04-24T06:48:30;1.10;;;1.00;;
59366;SDS011;45163;47.690;11.770;2023-04-24T06:50:56;0.97;;;0.87;;
59366;SDS011;45163;47.690;11.770;2023-04-24T06:53:22;0.83;;;0.80;;
59366;SDS011;45163;47.690;11.770;2023-04-24T06:55:48;0.77;;;0.77;;
59366;SDS011;45163;47.690;11.770;2023-04-24T06:58:14;0.53;;;0.50;;
59366;SDS011;45163;47.690;11.770;2023-04-24T07:00:41;0.80;;;0.70;;
59366;SDS011;45163;47.690;11.770;2023-04-24T07:03:07;0.80;;;0.80;;
59366;SDS011;45163;47.690;11.770;2023-04-24T07:05:33;1.00;;;0.90;;
59366;SDS011;45163;47.690;11.770;2023-04-24T07:08:01;0.77;;;0.70;;
59366;SDS011;45163;47.690;11.770;2023-04-24T07:10:27;1.13;;;1.03;;
59366;SDS011;45163;47.690;11.770;2023-04-24T07:12:54;0.73;;;0.73;;
59366;SDS011;45163;47.690;11.770;2023-04-24T07:15:23;0.60;;;0.60;;
59366;SDS011;45163;47.690;11.770;2023-04-24T07:17:49;0.60;;;0.57;;
59366;SDS011;45163;47.690;11.770;2023-04-24T07:20:16;1.37;;;0.70;;
59366;SDS011;45163;47.690;11.770;2023-04-24T07:22:42;0.57;;;0.57;;
59366;SDS011;45163;47.690;11.770;2023-04-24T07:25:08;1.00;;;0.70;;
59366;SDS011;45163;47.690;11.770;2023-04-24T07:27:35;0.97;;;0.80;;
59366;SDS011;45163;47.690;11.770;2023-04-24T07:30:02;1.27;;;1.10;;
59366;SDS011;45163;47.690;11.770;2023-04-24T07:32:29;0.77;;;0.70;;
59366;SDS011;45163;47.690;11.770;2023-04-24T07:34:55;1.13;;;0.80;;
59366;SDS011;45163;47.690;11.770;2023-04-24T07:37:22;0.80;;;0.50;;
59366;SDS011;45163;47.690;11.770;2023-04-24T07:39:48;0.80;;;0.80;;
59366;SDS011;45163;47.690;11.770;2023-04-24T07:42:15;0.63;;;0.60;;
59366;SDS011;45163;47.690;11.770;2023-04-24T07:44:40;0.60;;;0.60;;
59366;SDS011;45163;47.690;11.770;2023-04-24T07:47:06;0.63;;;0.63;;
59366;SDS011;45163;47.690;11.770;2023-04-24T07:49:33;0.77;;;0.73;;
59366;SDS011;45163;47.690;11.770;2023-04-24T07:52:00;1.43;;;0.53;;
59366;SDS011;45163;47.690;11.770;2023-04-24T07:54:28;0.70;;;0.70;;
59366;SDS011;45163;47.690;11.770;2023-04-24T07:56:54;1.30;;;0.70;;
59366;SDS011;45163;47.690;11.770;2023-04-24T07:59:23;1.90;;;0.60;;
59366;SDS011;45163;47.690;11.770;2023-04-24T08:01:49;0.40;;;0.40;;
59366;SDS011;45163;47.690;11.770;2023-04-24T08:04:15;0.73;;;0.70;;
59366;SDS011;45163;47.690;11.770;2023-04-24T08:06:41;1.07;;;0.60;;
59366;SDS011;45163;47.690;11.770;2023-04-24T08:09:07;2.17;;;0.80;;
59366;SDS011;45163;47.690;11.770;2023-04-24T08:11:33;0.73;;;0.60;;
59366;SDS011;45163;47.690;11.770;2023-04-24T08:13:59;3.47;;;0.70;;
59366;SDS011;45163;47.690;11.770;2023-04-24T08:16:25;1.57;;;0.80;;
59366;SDS011;45163;47.690;11.770;2023-04-24T08:18:51;0.90;;;0.90;;
59366;SDS011;45163;47.690;11.770;2023-04-24T08:21:18;1.53;;;0.90;;
59366;SDS011;45163;47.690;11.770;2023-04-24T08:23:46;1.57;;;1.00;;
59366;SDS011;45163;47.690;11.770;2023-04-24T08:26:12;1.13;;;1.03;;
59366;SDS011;45163;47.690;11.770;2023-04-24T08:28:38;1.20;;;1.00;;
59366;SDS011;45163;47.690;11.770;2023-04-24T08:31:04;3.00;;;1.57;;
59366;SDS011;45163;47.690;11.770;2023-04-24T08:33:30;1.70;;;1.50;;
59366;SDS011;45163;47.690;11.770;2023-04-24T08:36:01;0.50;;;0.50;;
59366;SDS011;45163;47.690;11.770;2023-04-24T08:38:28;0.50;;;0.50;;
59366;SDS011;45163;47.690;11.770;2023-04-24T08:40:54;0.60;;;0.60;;
59366;SDS011;45163;47.690;11.770;2023-04-24T08:43:22;0.60;;;0.60;;
59366;SDS011;45163;47.690;11.770;2023-04-24T08:45:48;1.70;;;0.40;;
59366;SDS011;45163;47.690;11.770;2023-04-24T08:48:15;2.00;;;0.77;;
59366;SDS011;45163;47.690;11.770;2023-04-24T08:50:43;0.60;;;0.60;;
59366;SDS011;45163;47.690;11.770;2023-04-24T08:53:10;1.27;;;1.00;;
59366;SDS011;45163;47.690;11.770;2023-04-24T08:55:39;1.03;;;0.90;;
59366;SDS011;45163;47.690;11.770;2023-04-24T08:58:08;0.90;;;0.90;;
59366;SDS011;45163;47.690;11.770;2023-04-24T09:00:35;1.13;;;1.10;;
59366;SDS011;45163;47.690;11.770;2023-04-24T09:03:02;1.33;;;1.00;;
59366;SDS011;45163;47.690;11.770;2023-04-24T09:05:30;1.70;;;1.20;;
59366;SDS011;45163;47.690;11.770;2023-04-24T09:07:58;1.30;;;1.17;;
59366;SDS011;45163;47.690;11.770;2023-04-24T09:10:26;1.30;;;1.20;;
59366;SDS011;45163;47.690;11.770;2023-04-24T09:12:52;4.17;;;1.07;;
59366;SDS011;45163;47.690;11.770;2023-04-24T09:15:19;1.93;;;1.00;;
59366;SDS011;45163;47.690;11.770;2023-04-24T09:17:46;1.63;;;1.30;;
59366;SDS011;45163;47.690;11.770;2023-04-24T09:20:12;1.30;;;1.20;;
59366;SDS011;45163;47.690;11.770;2023-04-24T09:22:42;1.40;;;1.30;;
59366;SDS011;45163;47.690;11.770;2023-04-24T09:25:09;1.33;;;1.23;;
59366;SDS011;45163;47.690;11.770;2023-04-24T09:27:44;2.77;;;1.10;;
59366;SDS011;45163;47.690;11.770;2023-04-24T09:30:10;1.20;;;1.10;;
59366;SDS011;45163;47.690;11.770;2023-04-24T09:32:37;1.93;;;1.30;;
59366;SDS011;45163;47.690;11.770;2023-04-24T09:35:07;1.70;;;1.30;;
59366;SDS011;45163;47.690;11.770;2023-04-24T09:37:38;1.33;;;1.23;;
59366;SDS011;45163;47.690;11.770;2023-04-24T09:40:10;1.83;;;1.23;;
59366;SDS011;45163;47.690;11.770;2023-04-24T09:42:51;2.23;;;1.23;;
59366;SDS011;45163;47.690;11.770;2023-04-24T09:45:21;1.97;;;1.30;;
59366;SDS011;45163;47.690;11.770;2023-04-24T09:47:51;2.80;;;1.37;;
59366;SDS011;45163;47.690;11.770;2023-04-24T09:50:19;2.63;;;1.10;;
59366;SDS011;45163;47.690;11.770;2023-04-24T09:52:46;1.17;;;1.07;;
59366;SDS011;45163;47.690;11.770;2023-04-24T09:55:21;2.60;;;1.10;;
59366;SDS011;45163;47.690;11.770;2023-04-24T09:57:48;2.53;;;1.30;;
59366;SDS011;45163;47.690;11.770;2023-04-24T10:00:17;2.23;;;1.23;;
59366;SDS011;45163;47.690;11.770;2023-04-24T10:02:54;2.33;;;1.33;;
59366;SDS011;45163;47.690;11.770;2023-04-24T10:05:26;1.60;;;1.20;;
59366;SDS011;45163;47.690;11.770;2023-04-24T10:08:07;1.20;;;1.10;;
59366;SDS011;45163;47.690;11.770;2023-04-24T10:10:38;1.30;;;1.20;;
59366;SDS011;45163;47.690;11.770;2023-04-24T10:13:07;1.27;;;1.17;;
59366;SDS011;45163;47.690;11.770;2023-04-24T10:15:34;3.77;;;1.40;;
59366;SDS011;45163;47.690;11.770;2023-04-24T10:18:01;1.40;;;1.30;;
59366;SDS011;45163;47.690;11.770;2023-04-24T10:20:28;2.27;;;1.03;;
59366;SDS011;45163;47.690;11.770;2023-04-24T10:22:56;1.70;;;1.20;;
59366;SDS011;45163;47.690;11.770;2023-04-24T10:25:24;1.67;;;1.23;;
59366;SDS011;45163;47.690;11.770;2023-04-24T10:28:00;1.83;;;1.30;;
59366;SDS011;45163;47.690;11.770;2023-04-24T10:30:28;2.43;;;1.50;;
59366;SDS011;45163;47.690;11.770;2023-04-24T10:32:56;1.73;;;1.20;;
59366;SDS011;45163;47.690;11.770;2023-04-24T10:35:22;2.83;;;1.20;;
59366;SDS011;45163;47.690;11.770;2023-04-24T10:37:54;2.07;;;1.20;;
59366;SDS011;45163;47.690;11.770;2023-04-24T10:40:32;1.40;;;1.30;;
59366;SDS011;45163;47.690;11.770;2023-04-24T10:43:04;3.40;;;1.57;;
59366;SDS011;45163;47.690;11.770;2023-04-24T10:45:33;1.23;;;1.20;;
59366;SDS011;45163;47.690;11.770;2023-04-24T10:48:04;2.33;;;1.23;;
59366;SDS011;45163;47.690;11.770;2023-04-24T10:50:46;1.20;;;1.10;;
59366;SDS011;45163;47.690;11.770;2023-04-24T10:53:13;1.53;;;1.00;;
59366;SDS011;45163;47.690;11.770;2023-04-24T10:55:46;4.40;;;1.43;;
59366;SDS011;45163;47.690;11.770;2023-04-24T10:58:14;1.60;;;1.23;;
59366;SDS011;45163;47.690;11.770;2023-04-24T11:00:42;1.33;;;1.10;;
59366;SDS011;45163;47.690;11.770;2023-04-24T11:03:31;1.20;;;1.10;;
59366;SDS011;45163;47.690;11.770;2023-04-24T11:08:24;2.10;;;1.30;;
59366;SDS011;45163;47.690;11.770;2023-04-24T11:10:57;1.30;;;1.00;;
59366;SDS011;45163;47.690;11.770;2023-04-24T11:13:24;2.00;;;1.10;;
59366;SDS011;45163;47.690;11.770;2023-04-24T11:16:34;0.93;;;0.93;;
59366;SDS011;45163;47.690;11.770;2023-04-24T11:18:50;1.07;;;0.90;;
59366;SDS011;45163;47.690;11.770;2023-04-24T11:21:20;1.53;;;1.00;;
59366;SDS011;45163;47.690;11.770;2023-04-24T11:23:46;1.50;;;0.90;;
59366;SDS011;45163;47.690;11.770;2023-04-24T11:26:13;3.20;;;1.10;;
59366;SDS011;45163;47.690;11.770;2023-04-24T11:28:44;4.00;;;1.10;;
59366;SDS011;45163;47.690;11.770;2023-04-24T11:34:11;1.83;;;1.00;;
59366;SDS011;45163;47.690;11.770;2023-04-24T11:36:39;0.90;;;0.90;;
59366;SDS011;45163;47.690;11.770;2023-04-24T11:39:08;1.33;;;0.93;;
59366;SDS011;45163;47.690;11.770;2023-04-24T11:41:34;1.33;;;1.20;;
59366;SDS011;45163;47.690;11.770;2023-04-24T11:44:01;1.20;;;1.00;;
59366;SDS011;45163;47.690;11.770;2023-04-24T11:46:29;1.53;;;1.30;;
59366;SDS011;45163;47.690;11.770;2023-04-24T11:48:57;1.30;;;1.20;;
59366;SDS011;45163;47.690;11.770;2023-04-24T11:51:25;2.10;;;1.30;;
59366;SDS011;45163;47.690;11.770;2023-04-24T11:53:55;0.90;;;0.90;;
59366;SDS011;45163;47.690;11.770;2023-04-24T11:56:22;2.40;;;1.20;;
59366;SDS011;45163;47.690;11.770;2023-04-24T11:58:52;3.50;;;1.40;;
59366;SDS011;45163;47.690;11.770;2023-04-24T12:01:21;1.67;;;1.13;;
59366;SDS011;45163;47.690;11.770;2023-04-24T12:03:48;1.33;;;0.97;;
59366;SDS011;45163;47.690;11.770;2023-04-24T12:06:16;1.03;;;1.00;;
59366;SDS011;45163;47.690;11.770;2023-04-24T12:08:45;1.03;;;1.00;;
59366;SDS011;45163;47.690;11.770;2023-04-24T12:11:14;1.60;;;1.10;;
59366;SDS011;45163;47.690;11.770;2023-04-24T12:13:41;1.77;;;1.10;;
59366;SDS011;45163;47.690;11.770;2023-04-24T12:16:07;1.07;;;0.97;;
59366;SDS011;45163;47.690;11.770;2023-04-24T12:18:33;1.40;;;1.17;;
59366;SDS011;45163;47.690;11.770;2023-04-24T12:21:18;3.07;;;1.03;;
59366;SDS011;45163;47.690;11.770;2023-04-24T12:23:46;1.20;;;1.10;;
59366;SDS011;45163;47.690;11.770;2023-04-24T12:26:15;1.80;;;1.13;;
59366;SDS011;45163;47.690;11.770;2023-04-24T12:28:45;1.03;;;0.80;;
59366;SDS011;45163;47.690;11.770;2023-04-24T12:31:12;0.90;;;0.90;;
59366;SDS011;45163;47.690;11.770;2023-04-24T12:33:38;3.20;;;1.10;;
59366;SDS011;45163;47.690;11.770;2023-04-24T12:36:04;1.00;;;1.00;;
59366;SDS011;45163;47.690;11.770;2023-04-24T12:38:31;3.17;;;1.20;;
59366;SDS011;45163;47.690;11.770;2023-04-24T12:41:06;1.60;;;1.17;;
59366;SDS011;45163;47.690;11.770;2023-04-24T12:43:34;12.00;;;1.70;;
59366;SDS011;45163;47.690;11.770;2023-04-24T12:46:00;1.23;;;1.00;;
59366;SDS011;45163;47.690;11.770;2023-04-24T12:48:27;1.03;;;1.00;;
59366;SDS011;45163;47.690;11.770;2023-04-24T12:50:53;1.20;;;1.10;;
59366;SDS011;45163;47.690;11.770;2023-04-24T12:53:20;1.80;;;1.17;;
59366;SDS011;45163;47.690;11.770;2023-04-24T12:55:46;1.77;;;1.00;;
59366;SDS011;45163;47.690;11.770;2023-04-24T12:58:21;1.43;;;1.00;;
59366;SDS011;45163;47.690;11.770;2023-04-24T13:00:47;2.80;;;0.90;;
59366;SDS011;45163;47.690;11.770;2023-04-24T13:03:13;2.13;;;1.20;;
59366;SDS011;45163;47.690;11.770;2023-04-24T13:05:40;1.10;;;0.90;;
59366;SDS011;45163;47.690;11.770;2023-04-24T13:08:07;0.87;;;0.87;;
59366;SDS011;45163;47.690;11.770;2023-04-24T13:10:33;1.67;;;1.20;;
59366;SDS011;45163;47.690;11.770;2023-04-24T13:13:00;1.23;;;1.13;;
59366;SDS011;45163;47.690;11.770;2023-04-24T13:15:26;3.50;;;1.17;;
59366;SDS011;45163;47.690;11.770;2023-04-24T13:17:52;1.20;;;1.10;;
59366;SDS011;45163;47.690;11.770;2023-04-24T13:20:18;3.83;;;1.10;;
59366;SDS011;45163;47.690;11.770;2023-04-24T13:22:44;2.37;;;1.43;;
59366;SDS011;45163;47.690;11.770;2023-04-24T13:25:10;1.93;;;1.00;;
59366;SDS011;45163;47.690;11.770;2023-04-24T13:27:37;1.57;;;1.20;;
59366;SDS011;45163;47.690;11.770;2023-04-24T13:30:05;1.40;;;1.13;;
59366;SDS011;45163;47.690;11.770;2023-04-24T13:32:31;1.20;;;1.10;;
59366;SDS011;45163;47.690;11.770;2023-04-24T13:34:58;2.27;;;1.40;;
59366;SDS011;45163;47.690;11.770;2023-04-24T13:37:24;1.40;;;1.30;;
59366;SDS011;45163;47.690;11.770;2023-04-24T13:39:51;2.20;;;1.30;;
59366;SDS011;45163;47.690;11.770;2023-04-24T13:42:17;1.73;;;1.13;;
59366;SDS011;45163;47.690;11.770;2023-04-24T13:44:44;1.20;;;1.10;;
59366;SDS011;45163;47.690;11.770;2023-04-24T13:47:10;5.37;;;1.37;;
59366;SDS011;45163;47.690;11.770;2023-04-24T13:49:36;3.13;;;1.57;;
59366;SDS011;45163;47.690;11.770;2023-04-24T13:52:02;3.03;;;1.60;;
59366;SDS011;45163;47.690;11.770;2023-04-24T13:54:28;2.10;;;1.33;;
59366;SDS011;45163;47.690;11.770;2023-04-24T13:56:55;2.27;;;1.30;;
59366;SDS011;45163;47.690;11.770;2023-04-24T13:59:23;3.03;;;1.40;;
59366;SDS011;45163;47.690;11.770;2023-04-24T14:01:49;1.47;;;1.37;;
59366;SDS011;45163;47.690;11.770;2023-04-24T14:04:15;2.20;;;1.40;;
59366;SDS011;45163;47.690;11.770;2023-04-24T14:06:41;1.40;;;1.30;;
59366;SDS011;45163;47.690;11.770;2023-04-24T14:09:07;4.47;;;1.40;;
59366;SDS011;45163;47.690;11.770;2023-04-24T14:11:33;1.83;;;1.23;;
59366;SDS011;45163;47.690;11.770;2023-04-24T14:13:59;1.90;;;1.20;;
59366;SDS011;45163;47.690;11.770;2023-04-24T14:16:25;3.93;;;1.60;;
59366;SDS011;45163;47.690;11.770;2023-04-24T14:18:51;3.77;;;1.30;;
59366;SDS011;45163;47.690;11.770;2023-04-24T14:21:17;2.30;;;1.37;;
59366;SDS011;45163;47.690;11.770;2023-04-24T14:23:43;1.63;;;1.30;;
59366;SDS011;45163;47.690;11.770;2023-04-24T14:26:09;2.00;;;1.23;;
59366;SDS011;45163;47.690;11.770;2023-04-24T14:28:35;1.83;;;1.30;;
59366;SDS011;45163;47.690;11.770;2023-04-24T14:31:01;2.00;;;1.20;;
59366;SDS011;45163;47.690;11.770;2023-04-24T14:33:27;4.00;;;1.30;;
59366;SDS011;45163;47.690;11.770;2023-04-24T14:35:53;2.70;;;1.50;;
59366;SDS011;45163;47.690;11.770;2023-04-24T14:38:20;4.00;;;1.53;;